LJC weather

La Jagua De Ibir Airport
La Jagua De Ibir, César Department, Colombia

Public forecast

Using degrees Celsius for public forecast. Weather courtesy of forecast.io.

METAR (pilot weather report)

Closest report is Alfonso López Pumarejo Airport, 51.8 nm (95.9 km) NNE. Retrieved 2019/04/22 14:00 UTC (19 minutes ago):

SKVP 221400Z 07012KT 9999 FEW020 BKN090 28/21 A2995

TAF (pilot weather forecast)

Closest forecast is Ernesto Cortissoz International Airport, 105.9 nm (196.1 km) NW. Retrieved 2019/04/22 12:47 UTC (2 hours ago):

TAF SKBQ 221100Z 2212/2312 01004KT 9999 SCT015 BECMG 2217/2218 01017KT PROB30 TEMPO 2219/2221 DZ FEW015CB BECMG 2309/2311 07003KT 4000 BR BKN012 TX34/2217Z TN26/2310Z